Time;durP1;ratioP1;P1;durP2;ratioP2;P2;SDS_P1;SDS_P2;PMS_P1;PMS_P2;Temp;Humidity;BMP_temperature;BMP_pressure;BME280_temperature;BME280_humidity;BME280_pressure;Samples;Min_cycle;Max_cycle;Signal;HPM_P1;HPM_P2
2022/06/27 00:00:27;;;;;;;9.45;7.67;;;;;;;19.90;66.67;101539.97;1675051;84;20989;-88
2022/06/27 00:02:55;;;;;;;8.78;7.97;;;;;;;19.87;66.78;101537.74;1669302;85;21069;-88
2022/06/27 00:05:22;;;;;;;9.85;8.75;;;;;;;19.86;66.80;101539.95;1669721;85;23105;-89
2022/06/27 00:07:52;;;;;;;9.73;7.87;;;;;;;19.81;66.92;101539.97;1664304;85;21059;-89
2022/06/27 00:10:17;;;;;;;8.43;7.10;;;;;;;19.78;67.00;101535.95;1642606;85;21551;-88
2022/06/27 00:12:44;;;;;;;9.88;8.03;;;;;;;19.78;67.05;101535.95;1676662;85;21091;-88
2022/06/27 00:15:11;;;;;;;11.90;7.50;;;;;;;19.77;67.17;101538.20;1661918;84;21571;-88
2022/06/27 00:17:39;;;;;;;11.20;7.35;;;;;;;19.75;67.23;101535.98;1674197;85;21744;-88
2022/06/27 00:20:07;;;;;;;10.63;7.97;;;;;;;19.73;67.33;101529.29;1679692;85;21268;-88
2022/06/27 00:22:34;;;;;;;11.53;7.80;;;;;;;19.70;67.42;101534.59;1679688;84;21079;-88
2022/06/27 00:25:00;;;;;;;9.43;8.10;;;;;;;19.67;67.55;101535.95;1666596;84;21166;-89
2022/06/27 00:27:27;;;;;;;11.22;7.58;;;;;;;19.66;67.66;101535.48;1666625;85;21075;-88
2022/06/27 00:29:54;;;;;;;13.60;7.50;;;;;;;19.65;67.74;101540.37;1672225;84;23197;-89
2022/06/27 00:32:23;;;;;;;9.78;7.65;;;;;;;19.64;67.73;101537.73;1672673;84;21065;-88
2022/06/27 00:34:50;;;;;;;8.23;7.42;;;;;;;19.60;67.81;101535.04;1667991;85;21091;-88
2022/06/27 00:37:19;;;;;;;9.03;7.37;;;;;;;19.57;67.79;101533.69;1641740;85;21082;-89
2022/06/27 00:39:46;;;;;;;13.10;7.25;;;;;;;19.45;67.90;101515.02;1640618;86;21210;-89
2022/06/27 00:42:14;;;;;;;10.40;8.05;;;;;;;19.51;67.95;101529.70;1656799;84;21082;-89
2022/06/27 00:44:43;;;;;;;10.03;7.67;;;;;;;19.48;68.03;101534.14;1666333;85;21131;-89
2022/06/27 00:47:15;;;;;;;8.65;7.75;;;;;;;19.47;68.20;101531.04;1668316;85;21056;-88
2022/06/27 00:49:43;;;;;;;17.25;7.90;;;;;;;19.45;68.23;101532.37;1654366;84;21086;-89
2022/06/27 00:52:13;;;;;;;9.58;7.20;;;;;;;19.45;68.22;101540.83;1674504;84;21338;-88
2022/06/27 00:54:46;;;;;;;13.50;7.87;;;;;;;19.41;68.35;101534.59;1633957;86;23035;-88
2022/06/27 00:57:13;;;;;;;10.63;8.35;;;;;;;19.41;68.47;101537.27;1660376;84;21075;-89
2022/06/27 00:59:40;;;;;;;12.03;8.28;;;;;;;19.38;68.50;101537.25;1661856;85;21078;-89
2022/06/27 01:02:07;;;;;;;8.65;7.85;;;;;;;19.35;68.57;101531.89;1672962;84;21473;-88
2022/06/27 01:04:36;;;;;;;10.25;7.58;;;;;;;19.32;68.67;101542.14;1663370;84;21640;-88
2022/06/27 01:07:03;;;;;;;7.97;7.17;;;;;;;19.32;68.79;101539.47;1646038;85;21774;-88
2022/06/27 01:09:32;;;;;;;8.30;7.28;;;;;;;19.32;68.79;101538.59;1653421;85;21077;-89
2022/06/27 01:11:59;;;;;;;9.85;7.72;;;;;;;19.28;68.78;101537.69;1656311;85;22138;-89
2022/06/27 01:14:30;;;;;;;8.40;7.60;;;;;;;19.29;68.93;101545.24;1651494;85;21071;-88
2022/06/27 01:16:54;;;;;;;10.78;8.15;;;;;;;19.25;68.92;101541.67;1672130;83;21068;-88
2022/06/27 01:19:23;;;;;;;11.65;7.92;;;;;;;19.26;68.98;101543.89;1663862;85;21091;-88
2022/06/27 01:21:58;;;;;;;9.23;8.30;;;;;;;19.21;69.01;101542.56;1672318;84;21613;-89
2022/06/27 01:24:28;;;;;;;8.33;7.50;;;;;;;19.20;69.18;101543.02;1647605;84;21133;-88
2022/06/27 01:26:55;;;;;;;10.53;8.15;;;;;;;19.17;69.21;101546.12;1657741;85;21075;-88
2022/06/27 01:29:22;;;;;;;9.15;7.70;;;;;;;19.15;69.24;101547.45;1649030;85;21065;-89
2022/06/27 01:31:49;;;;;;;9.13;8.20;;;;;;;19.12;69.35;101544.75;1645571;85;21749;-89
2022/06/27 01:34:17;;;;;;;11.22;7.80;;;;;;;19.09;69.41;101547.86;1663683;85;21095;-89
2022/06/27 01:36:46;;;;;;;9.93;7.85;;;;;;;19.04;69.47;101546.53;1664303;85;21190;-89
2022/06/27 01:39:19;;;;;;;9.10;8.20;;;;;;;19.00;69.61;101543.41;1662647;85;21570;-89
2022/06/27 01:41:55;;;;;;;8.95;8.10;;;;;;;18.98;69.71;101543.40;1647007;83;21075;-89
2022/06/27 01:44:25;;;;;;;14.53;8.03;;;;;;;18.96;69.79;101533.62;1643018;85;21758;-88
2022/06/27 01:47:08;;;;;;;8.88;7.95;;;;;;;18.94;69.86;101538.03;1645751;85;20991;-89
2022/06/27 01:49:35;;;;;;;10.15;7.62;;;;;;;18.89;69.93;101534.03;1645997;86;21012;-88
2022/06/27 01:52:03;;;;;;;10.58;8.40;;;;;;;18.86;70.01;101534.01;1655370;85;21048;-88
2022/06/27 01:54:30;;;;;;;9.70;7.75;;;;;;;18.84;70.06;101531.36;1674984;85;21452;-89
2022/06/27 01:56:57;;;;;;;9.23;8.30;;;;;;;18.81;70.12;101531.34;1646814;85;21695;-88
2022/06/27 01:59:27;;;;;;;8.78;7.87;;;;;;;18.81;70.23;101538.02;1645315;85;21011;-88
2022/06/27 02:01:54;;;;;;;10.98;8.33;;;;;;;18.80;70.27;101538.87;1643289;86;21540;-88
2022/06/27 02:04:23;;;;;;;8.35;7.58;;;;;;;18.79;70.30;101540.20;1673057;84;20993;-89
2022/06/27 02:06:53;;;;;;;10.03;8.33;;;;;;;18.78;70.37;101532.62;1682302;83;21002;-89
2022/06/27 02:09:20;;;;;;;8.85;7.97;;;;;;;18.79;70.46;101537.53;1673378;84;21743;-89
2022/06/27 02:11:49;;;;;;;8.60;7.83;;;;;;;18.77;70.48;101532.61;1671840;84;21622;-89
2022/06/27 02:14:16;;;;;;;9.95;8.18;;;;;;;18.73;70.52;101522.41;1680760;84;21101;-88
2022/06/27 02:16:43;;;;;;;8.30;7.50;;;;;;;18.75;70.59;101526.38;1654097;85;21149;-88
2022/06/27 02:19:18;;;;;;;9.33;7.90;;;;;;;18.75;70.64;101522.38;1676536;84;21074;-88
2022/06/27 02:21:43;;;;;;;9.20;8.30;;;;;;;18.75;70.69;101527.71;1656483;84;22973;-89
2022/06/27 02:24:17;;;;;;;11.00;7.80;;;;;;;18.75;70.70;101523.71;1676895;84;21444;-89
2022/06/27 02:26:48;;;;;;;9.10;8.30;;;;;;;18.75;70.78;101529.05;1671819;83;21508;-89
2022/06/27 02:29:14;;;;;;;9.20;8.20;;;;;;;18.77;70.83;101522.85;1675182;84;21509;-89
2022/06/27 02:31:50;;;;;;;9.45;8.58;;;;;;;18.84;70.87;101527.78;1684861;85;21090;-89
2022/06/27 02:34:17;;;;;;;10.20;8.03;;;;;;;18.88;70.91;101525.56;1645942;85;22416;-89
2022/06/27 02:36:47;;;;;;;11.60;8.85;;;;;;;18.92;70.85;101523.38;1665326;84;21396;-89
2022/06/27 02:39:17;;;;;;;12.82;8.38;;;;;;;18.97;70.87;101530.94;1685026;83;21128;-89
2022/06/27 02:41:45;;;;;;;11.00;8.60;;;;;;;19.00;70.85;101526.95;1648102;84;21006;-88
2022/06/27 02:44:16;;;;;;;12.25;8.28;;;;;;;19.04;70.87;101528.73;1665368;84;21454;-88
2022/06/27 02:46:46;;;;;;;10.13;8.58;;;;;;;19.09;70.88;101536.77;1655442;85;21765;-87
2022/06/27 02:49:12;;;;;;;9.78;8.40;;;;;;;19.13;70.86;101525.66;1654412;85;21094;-88
2022/06/27 02:52:07;;;;;;;8.35;7.47;;;;;;;19.17;70.79;101526.98;1639433;85;21170;-88
2022/06/27 02:54:41;;;;;;;;;;;;;;;19.22;70.77;101527.89;1659725;84;21105;-88
2022/06/27 02:57:16;;;;;;;18.52;7.55;;;;;;;19.29;70.84;101531.45;1676612;84;20217;-88
2022/06/27 02:59:47;;;;;;;10.32;7.97;;;;;;;19.35;70.68;101536.81;1675866;84;21774;-88
2022/06/27 03:02:17;;;;;;;10.13;8.53;;;;;;;19.43;70.70;101533.70;1678670;83;21435;-87
2022/06/27 03:04:42;;;;;;;8.65;7.65;;;;;;;19.51;70.59;101534.16;1651172;84;21142;-87
2022/06/27 03:07:09;;;;;;;9.68;8.50;;;;;;;19.55;70.41;101546.61;1660703;84;21149;-88
2022/06/27 03:09:36;;;;;;;9.10;8.20;;;;;;;19.60;70.37;101548.84;1683923;84;21059;-88
2022/06/27 03:12:07;;;;;;;9.00;8.10;;;;;;;19.66;70.36;101543.50;1667735;84;21575;-88
2022/06/27 03:14:32;;;;;;;9.40;8.40;;;;;;;19.73;70.26;101542.65;1659175;84;21616;-88
2022/06/27 03:16:59;;;;;;;8.78;7.87;;;;;;;19.82;70.24;101543.10;1623151;87;21109;-88
2022/06/27 03:19:29;;;;;;;8.55;7.75;;;;;;;19.92;70.14;101543.98;1611878;88;21124;-88
2022/06/27 03:21:54;;;;;;;12.15;8.38;;;;;;;20.05;70.08;101551.09;1618764;86;21135;-88
2022/06/27 03:24:21;;;;;;;9.73;8.50;;;;;;;20.18;69.92;101547.95;1620485;86;21838;-88
2022/06/27 03:26:50;;;;;;;13.35;7.72;;;;;;;20.31;69.81;101551.03;1629015;86;21076;-88
2022/06/27 03:29:22;;;;;;;9.13;8.08;;;;;;;20.48;69.75;101557.67;1645461;86;21143;-88
2022/06/27 03:31:50;;;;;;;11.90;7.80;;;;;;;21.05;70.76;101557.45;1618757;88;21121;-88
2022/06/27 03:34:19;;;;;;;10.60;7.83;;;;;;;22.22;70.39;101557.00;1638284;85;21528;-88
2022/06/27 03:36:46;;;;;;;9.30;7.62;;;;;;;23.18;69.74;101554.09;1636724;86;21849;-89
2022/06/27 03:39:14;;;;;;;16.12;8.03;;;;;;;24.14;67.77;101555.68;1627156;85;21726;-87
2022/06/27 03:41:41;;;;;;;8.70;7.80;;;;;;;24.19;65.25;101553.77;1623058;86;21118;-89
2022/06/27 03:44:08;;;;;;;9.70;8.30;;;;;;;23.94;64.40;101556.50;1609588;87;21147;-88
2022/06/27 03:46:36;;;;;;;10.78;8.20;;;;;;;23.76;64.12;101562.60;1633366;86;21122;-88
2022/06/27 03:51:50;;;;;;;11.57;8.53;;;;;;;23.81;63.93;101567.45;1631739;86;21108;-87
2022/06/27 03:54:17;;;;;;;10.10;8.38;;;;;;;24.48;64.13;101572.52;1618517;86;21475;-89
2022/06/27 03:56:47;;;;;;;11.88;8.40;;;;;;;25.44;63.80;101574.56;1637016;86;21396;-88
2022/06/27 03:59:13;;;;;;;9.33;8.43;;;;;;;27.05;63.49;101564.82;1629054;85;21226;-89
2022/06/27 04:01:40;;;;;;;11.28;8.55;;;;;;;28.81;61.38;101568.32;1618246;86;21761;-88
2022/06/27 04:04:06;;;;;;;10.03;9.03;;;;;;;30.33;59.25;101565.28;1612709;87;21135;-89
2022/06/27 04:06:36;;;;;;;9.93;8.55;;;;;;;31.60;56.44;101561.11;1625900;87;21113;-88
2022/06/27 04:09:05;;;;;;;14.07;8.45;;;;;;;32.59;54.60;101564.19;1636177;86;21140;-89
2022/06/27 04:11:35;;;;;;;12.55;9.10;;;;;;;33.62;52.58;101574.23;1639319;85;21566;-90
2022/06/27 04:14:00;;;;;;;10.32;8.00;;;;;;;34.43;50.89;101568.45;1639096;84;21894;-89
2022/06/27 04:16:29;;;;;;;11.65;9.18;;;;;;;35.34;48.93;101568.11;1618772;87;21116;-88
2022/06/27 04:18:55;;;;;;;9.08;7.58;;;;;;;36.15;47.21;101571.30;1632080;86;21100;-89
2022/06/27 04:21:24;;;;;;;12.13;7.00;;;;;;;36.74;45.63;101577.66;1633083;86;21102;-89
2022/06/27 04:23:50;;;;;;;7.95;7.25;;;;;;;37.29;44.46;101572.71;1620466;87;21571;-91
2022/06/27 04:26:17;;;;;;;7.37;6.55;;;;;;;37.92;42.77;101573.42;1631766;85;21934;-88
2022/06/27 04:41:28;;;;;;;5.65;5.15;;;;;;;40.33;37.03;101577.91;1628247;86;21136;-88
2022/06/27 04:54:59;;;;;;;5.28;4.53;;;;;;;43.08;32.05;101591.78;1590652;88;21592;-91
2022/06/27 04:57:43;;;;;;;8.70;5.08;;;;;;;43.56;30.73;101589.75;1584826;89;21222;-88
2022/06/27 05:03:28;;;;;;;;;;;;;;;;;;;;;
2022/06/27 05:05:47;;;;;;;11.12;4.80;;;;;;;44.56;28.40;101596.85;1566057;89;21139;-88
2022/06/27 05:08:21;;;;;;;9.00;4.35;;;;;;;44.93;27.82;101598.98;1575826;89;21192;-88
2022/06/27 05:10:56;;;;;;;11.48;4.95;;;;;;;45.30;27.35;101602.79;1575619;89;21173;-88
2022/06/27 05:13:25;;;;;;;12.28;4.50;;;;;;;45.56;26.55;101603.20;1546806;91;21156;-88
2022/06/27 05:16:03;;;;;;;6.12;4.47;;;;;;;45.73;26.04;101609.15;1573212;89;21129;-88
2022/06/27 05:18:37;;;;;;;6.53;4.47;;;;;;;46.00;25.47;101606.20;1575495;88;22099;-88
2022/06/27 05:21:04;;;;;;;9.80;4.33;;;;;;;46.33;25.01;101603.75;1585653;88;21726;-89
2022/06/27 05:23:32;;;;;;;6.97;4.60;;;;;;;46.40;24.49;101606.67;1599548;88;21719;-87
2022/06/27 05:26:02;;;;;;;8.68;4.60;;;;;;;46.49;24.27;101610.36;1619874;87;21719;-88
2022/06/27 05:28:29;;;;;;;8.68;4.20;;;;;;;46.64;23.86;101602.13;1631226;86;20967;-88
2022/06/27 05:30:56;;;;;;;4.55;4.15;;;;;;;46.77;23.75;101605.21;1669778;84;21135;-88
2022/06/27 05:33:23;;;;;;;7.53;4.15;;;;;;;47.01;23.37;101608.98;1676446;83;21134;-88
2022/06/27 05:35:58;;;;;;;5.92;4.65;;;;;;;47.06;22.92;101601.81;1673713;84;22131;-88
2022/06/27 05:38:26;;;;;;;8.98;4.58;;;;;;;47.12;22.72;101608.05;1657974;85;21071;-88
2022/06/27 05:40:53;;;;;;;8.88;4.80;;;;;;;47.03;22.32;101604.95;1655208;84;21892;-88
2022/06/27 05:43:20;;;;;;;6.45;4.10;;;;;;;46.88;22.12;101608.17;1671088;84;21158;-87
2022/06/27 05:45:48;;;;;;;8.58;4.40;;;;;;;45.75;21.73;101605.67;1668665;84;21123;-88
2022/06/27 05:48:16;;;;;;;6.78;4.50;;;;;;;43.52;22.19;101607.22;1654932;85;21123;-88
2022/06/27 05:50:42;;;;;;;5.45;4.42;;;;;;;41.33;23.21;101608.08;1661830;85;21766;-87
2022/06/27 05:53:12;;;;;;;7.85;4.75;;;;;;;39.67;24.30;101602.04;1667426;84;20992;-88
2022/06/27 05:55:40;;;;;;;5.20;4.58;;;;;;;38.15;25.19;101609.25;1668764;85;22441;-87
2022/06/27 05:58:10;;;;;;;5.80;5.08;;;;;;;36.81;26.36;101604.63;1673794;84;21126;-86
2022/06/27 06:00:38;;;;;;;5.33;4.55;;;;;;;35.67;27.35;101601.56;1668608;84;21146;-87
2022/06/27 06:03:06;;;;;;;8.65;4.70;;;;;;;34.69;28.30;101598.78;1666193;85;21083;-88
2022/06/27 06:05:32;;;;;;;7.03;5.05;;;;;;;33.76;29.40;101607.56;1669553;84;21115;-87
2022/06/27 06:08:02;;;;;;;11.68;5.15;;;;;;;33.08;30.27;101610.53;1678350;84;21092;-87
2022/06/27 06:10:30;;;;;;;7.05;5.35;;;;;;;32.51;31.10;101613.14;1678575;83;21036;-87
2022/06/27 06:12:58;;;;;;;9.50;5.67;;;;;;;31.94;31.92;101607.02;1667946;85;21107;-87
2022/06/27 06:15:25;;;;;;;8.30;5.90;;;;;;;31.42;32.82;101610.96;1670700;83;21847;-87
2022/06/27 06:17:54;;;;;;;8.33;6.00;;;;;;;30.97;33.38;101609.92;1669984;84;21098;-87
2022/06/27 06:20:31;;;;;;;8.93;5.87;;;;;;;30.56;34.24;101608.60;1672776;84;21709;-87
2022/06/27 06:23:14;;;;;;;9.40;5.70;;;;;;;30.26;35.18;101613.99;1658468;85;21471;-87
2022/06/27 06:26:01;;;;;;;9.80;6.62;;;;;;;30.04;35.84;101618.53;1653293;85;21098;-86
2022/06/27 06:28:30;;;;;;;11.08;5.75;;;;;;;29.82;36.34;101617.67;1670239;84;21531;-87
2022/06/27 06:30:55;;;;;;;11.60;6.83;;;;;;;29.60;37.08;101621.71;1668536;84;21090;-87
2022/06/27 06:33:24;;;;;;;10.03;6.47;;;;;;;29.39;37.52;101615.34;1678536;83;22280;-87
2022/06/27 06:35:52;;;;;;;12.63;6.78;;;;;;;29.21;38.09;101621.91;1671275;85;21697;-86
2022/06/27 06:38:19;;;;;;;11.45;6.33;;;;;;;29.07;38.41;101620.16;1677430;84;21086;-88
2022/06/27 06:40:46;;;;;;;9.20;6.53;;;;;;;28.89;38.75;101613.16;1682003;84;21777;-87
2022/06/27 06:43:16;;;;;;;10.82;6.47;;;;;;;28.77;39.17;101610.03;1661626;84;21082;-87
2022/06/27 06:45:43;;;;;;;13.48;6.60;;;;;;;28.58;39.63;101605.29;1674612;84;21134;-87
2022/06/27 06:48:13;;;;;;;8.03;6.60;;;;;;;28.52;40.15;101598.75;1654202;85;21557;-87
2022/06/27 06:50:39;;;;;;;11.15;7.12;;;;;;;28.43;40.49;101602.64;1656838;85;21162;-87
2022/06/27 06:53:07;;;;;;;8.98;6.47;;;;;;;28.34;40.99;101598.91;1664531;85;21751;-87
2022/06/27 06:55:34;;;;;;;12.55;6.65;;;;;;;28.28;41.36;101600.48;1678038;84;21463;-87
2022/06/27 06:58:03;;;;;;;11.10;6.83;;;;;;;28.20;41.49;101597.17;1682293;84;21073;-87
2022/06/27 07:00:30;;;;;;;9.08;6.22;;;;;;;28.08;41.69;101593.05;1686532;84;22233;-86
2022/06/27 07:02:58;;;;;;;9.30;6.40;;;;;;;28.03;42.07;101591.00;1686839;84;21009;-87
2022/06/27 07:05:28;;;;;;;9.38;6.87;;;;;;;28.00;42.33;101591.97;1647417;85;22220;-87
2022/06/27 07:08:00;;;;;;;13.40;7.08;;;;;;;27.99;42.66;101585.28;1663943;85;21103;-86
2022/06/27 07:10:34;;;;;;;10.30;6.92;;;;;;;27.86;42.62;101576.66;1685260;84;21120;-86
2022/06/27 07:13:03;;;;;;;9.58;6.70;;;;;;;27.79;42.81;101581.39;1685428;84;21143;-86
2022/06/27 07:15:35;;;;;;;14.65;6.47;;;;;;;27.71;43.16;101581.65;1674166;84;21091;-87
2022/06/27 07:18:04;;;;;;;10.60;7.03;;;;;;;27.72;43.47;101586.58;1678082;83;21777;-86
2022/06/27 07:20:47;;;;;;;;;;;;;;;;;;;;;
2022/06/27 07:23:20;;;;;;;6.83;6.10;;;;;;;27.66;43.93;101578.20;1663234;84;21494;-86
2022/06/27 07:26:01;;;;;;;;;;;;;;;;;;;;;
2022/06/27 07:28:48;;;;;;;9.35;6.17;;;;;;;27.77;44.18;101576.98;1636132;85;21190;-86
2022/06/27 07:31:15;;;;;;;7.30;5.77;;;;;;;27.73;44.28;101570.78;1648952;84;21170;-86
2022/06/27 07:34:06;;;;;;;;;;;;;;;;;;;;;
2022/06/27 07:39:18;;;;;;;10.48;6.03;;;;;;;27.83;44.88;101566.81;1593799;88;21093;-86
2022/06/27 07:41:45;;;;;;;6.97;5.35;;;;;;;27.81;44.88;101567.34;1619731;85;21071;-86
2022/06/27 07:44:12;;;;;;;8.05;5.45;;;;;;;27.79;45.13;101571.05;1651457;85;21762;-87
2022/06/27 07:46:39;;;;;;;10.28;5.70;;;;;;;27.79;45.17;101571.92;1674597;85;21581;-87
2022/06/27 07:49:06;;;;;;;6.67;6.05;;;;;;;27.84;44.86;101570.43;1677475;84;21051;-87
2022/06/27 07:51:35;;;;;;;7.67;5.30;;;;;;;27.86;45.02;101565.84;1675357;85;21048;-87
2022/06/27 07:54:02;;;;;;;8.50;5.83;;;;;;;27.91;45.21;101573.34;1669537;85;21118;-87
2022/06/27 07:56:29;;;;;;;10.45;5.45;;;;;;;27.96;45.38;101565.09;1663806;84;21732;-88
2022/06/27 07:58:56;;;;;;;10.40;5.65;;;;;;;28.03;45.70;101570.23;1677225;84;21091;-87
2022/06/27 08:01:27;;;;;;;7.05;4.80;;;;;;;28.09;45.92;101567.30;1674531;84;21211;-87
2022/06/27 08:03:53;;;;;;;6.25;4.67;;;;;;;28.13;45.78;101569.42;1669402;84;22244;-87
2022/06/27 08:06:26;;;;;;;9.95;5.40;;;;;;;28.19;46.07;101571.91;1671684;84;21063;-87
2022/06/27 08:08:57;;;;;;;7.08;5.42;;;;;;;28.21;45.95;101561.03;1674920;85;25311;-87
2022/06/27 08:11:26;;;;;;;10.30;5.35;;;;;;;28.24;45.83;101559.58;1681924;84;21118;-87
2022/06/27 08:13:56;;;;;;;5.85;5.28;;;;;;;28.28;46.05;101551.27;1678661;84;21106;-87
2022/06/27 08:16:24;;;;;;;8.53;5.28;;;;;;;28.31;45.88;101544.89;1670973;85;21085;-87
2022/06/27 08:18:51;;;;;;;6.22;4.60;;;;;;;28.32;46.09;101549.34;1667938;84;21095;-87
2022/06/27 08:21:24;;;;;;;5.95;5.00;;;;;;;28.36;46.08;101550.11;1662276;85;21826;-88
2022/06/27 08:23:51;;;;;;;10.10;4.97;;;;;;;28.43;46.20;101551.19;1668837;84;21114;-88
2022/06/27 08:26:17;;;;;;;7.67;4.72;;;;;;;28.52;45.85;101547.73;1669366;85;21172;-88
2022/06/27 08:28:47;;;;;;;6.17;5.58;;;;;;;28.58;45.53;101546.18;1672510;84;21175;-87
2022/06/27 08:31:14;;;;;;;5.95;4.53;;;;;;;28.57;45.34;101541.24;1635436;86;21041;-88
2022/06/27 08:33:43;;;;;;;6.50;4.50;;;;;;;28.59;45.29;101542.06;1624883;86;21773;-88
2022/06/27 08:36:09;;;;;;;7.58;4.28;;;;;;;28.65;45.34;101538.23;1609558;86;21016;-88
2022/06/27 08:38:42;;;;;;;5.20;4.70;;;;;;;28.72;45.03;101538.87;1672464;84;21000;-88
2022/06/27 08:41:07;;;;;;;6.03;4.95;;;;;;;28.79;44.79;101543.11;1628543;87;21469;-88
2022/06/27 08:43:34;;;;;;;5.05;4.40;;;;;;;28.83;44.73;101538.89;1635603;86;21439;-88
2022/06/27 08:46:01;;;;;;;7.28;5.35;;;;;;;28.89;44.44;101541.34;1674256;85;21782;-88
2022/06/27 08:48:29;;;;;;;9.18;4.10;;;;;;;28.91;44.45;101540.42;1675494;85;21035;-88
2022/06/27 08:50:59;;;;;;;7.67;4.55;;;;;;;28.94;44.32;101540.28;1668113;84;21028;-88
2022/06/27 08:53:25;;;;;;;6.80;4.12;;;;;;;28.97;44.27;101538.81;1677751;83;21009;-88
2022/06/27 08:55:51;;;;;;;4.92;4.22;;;;;;;29.03;44.40;101531.78;1685347;84;21587;-88
2022/06/27 08:58:19;;;;;;;4.30;3.90;;;;;;;29.11;44.16;101545.03;1672911;84;22619;-88
2022/06/27 09:00:46;;;;;;;11.45;4.90;;;;;;;29.13;43.82;101544.08;1675698;83;21090;-88
2022/06/27 09:03:19;;;;;;;8.45;3.90;;;;;;;29.17;43.62;101540.74;1682832;83;20994;-88
2022/06/27 09:06:04;;;;;;;11.35;8.88;;;;;;;29.19;43.60;101542.47;1685970;83;21085;-88
2022/06/27 09:08:36;;;;;;;8.73;4.72;;;;;;;29.25;43.72;101535.91;1681196;83;21015;-88
2022/06/27 09:11:03;;;;;;;6.20;4.55;;;;;;;29.33;43.43;101539.18;1688372;83;22055;-88
2022/06/27 09:13:30;;;;;;;5.28;4.15;;;;;;;29.33;43.29;101522.91;1689204;83;21124;-88
2022/06/27 09:16:01;;;;;;;7.90;4.25;;;;;;;29.41;43.35;101526.20;1679607;83;21602;-88
2022/06/27 09:18:37;;;;;;;4.97;4.47;;;;;;;29.45;43.18;101529.20;1683549;83;21094;-88
2022/06/27 09:21:10;;;;;;;4.75;3.98;;;;;;;29.49;43.11;101530.40;1683467;83;21633;-88
2022/06/27 09:23:43;;;;;;;5.33;4.33;;;;;;;29.56;43.15;101524.68;1652648;84;21836;-88
2022/06/27 09:26:27;;;;;;;6.37;4.50;;;;;;;29.64;42.98;101524.35;1661266;84;21067;-87
2022/06/27 09:29:09;;;;;;;7.70;4.10;;;;;;;29.76;43.05;101524.33;1694381;83;21062;-88
2022/06/27 09:31:39;;;;;;;6.75;5.50;;;;;;;29.86;42.50;101520.25;1648014;85;21166;-87
2022/06/27 09:34:19;;;;;;;4.95;4.45;;;;;;;29.94;42.15;101513.12;1638697;86;21629;-88
2022/06/27 09:36:51;;;;;;;7.40;4.83;;;;;;;30.01;42.09;101521.41;1697455;83;21779;-88
2022/06/27 09:39:30;;;;;;;8.10;5.45;;;;;;;30.08;42.12;101519.31;1696852;83;21069;-88
2022/06/27 09:42:03;;;;;;;8.08;4.62;;;;;;;30.13;42.03;101515.92;1709279;83;21073;-88
2022/06/27 09:44:38;;;;;;;10.80;4.12;;;;;;;30.14;41.99;101512.24;1684855;82;21106;-88
2022/06/27 09:47:09;;;;;;;13.55;11.95;;;;;;;30.28;41.76;101509.80;1688979;83;21614;-88
2022/06/27 09:49:38;;;;;;;6.17;4.03;;;;;;;30.48;41.55;101507.53;1658787;83;21784;-87
2022/06/27 09:52:11;;;;;;;8.63;3.72;;;;;;;30.62;41.14;101507.77;1684580;83;21022;-88
2022/06/27 09:54:40;;;;;;;8.23;3.60;;;;;;;30.79;41.03;101508.81;1688645;83;21004;-88
2022/06/27 09:57:07;;;;;;;7.87;4.12;;;;;;;30.98;40.67;101502.05;1686353;83;21083;-87
2022/06/27 09:59:34;;;;;;;7.40;3.55;;;;;;;31.15;40.01;101499.36;1689197;83;21078;-88
2022/06/27 10:02:01;;;;;;;11.57;4.22;;;;;;;31.28;39.78;101493.33;1683292;83;21711;-87
2022/06/27 10:04:29;;;;;;;10.23;3.80;;;;;;;31.36;39.54;101486.52;1685291;83;20995;-87
2022/06/27 10:06:58;;;;;;;4.08;3.42;;;;;;;31.46;39.16;101491.04;1667932;84;21631;-88
2022/06/27 10:09:29;;;;;;;5.40;3.35;;;;;;;31.45;38.86;101479.73;1653176;84;21191;-88
2022/06/27 10:12:36;;;;;;;5.60;4.50;;;;;;;31.51;38.65;101486.25;1661809;84;21712;-88
2022/06/27 10:15:16;;;;;;;4.72;3.35;;;;;;;31.51;38.65;101483.53;1679423;83;22555;-88
2022/06/27 10:17:50;;;;;;;5.80;3.22;;;;;;;31.54;38.58;101489.31;1671203;82;21056;-88
2022/06/27 10:20:28;;;;;;;3.65;2.85;;;;;;;31.60;38.64;101490.84;1673512;84;22263;-87
2022/06/27 10:23:17;;;;;;;6.80;3.62;;;;;;;31.67;38.28;101484.13;1672533;83;21728;-87
2022/06/27 10:25:50;;;;;;;9.73;4.55;;;;;;;31.71;38.24;101481.64;1679825;84;21169;-87
2022/06/27 10:28:18;;;;;;;4.78;3.17;;;;;;;31.78;38.11;101481.72;1674147;84;22905;-87
2022/06/27 10:30:49;;;;;;;6.37;4.00;;;;;;;31.82;38.02;101485.16;1674514;84;21012;-86
2022/06/27 10:33:27;;;;;;;8.53;4.22;;;;;;;31.81;37.94;101486.98;1676276;83;21072;-87
2022/06/27 10:36:02;;;;;;;8.35;3.30;;;;;;;31.87;37.99;101483.05;1682622;84;21157;-86
2022/06/27 10:38:42;;;;;;;7.30;3.60;;;;;;;31.89;37.71;101483.39;1648593;84;21163;-86
2022/06/27 10:41:12;;;;;;;8.25;3.33;;;;;;;31.93;37.57;101476.81;1674489;84;21860;-87
2022/06/27 10:43:49;;;;;;;4.53;3.72;;;;;;;31.99;37.41;101474.73;1653518;84;21103;-86
2022/06/27 10:46:21;;;;;;;4.75;2.90;;;;;;;32.05;37.45;101480.75;1676145;83;21047;-87
2022/06/27 10:48:54;;;;;;;8.23;3.08;;;;;;;32.10;37.34;101479.16;1678812;83;21772;-87
2022/06/27 10:51:35;;;;;;;5.80;3.42;;;;;;;32.14;36.72;101481.62;1679866;83;21131;-87
2022/06/27 10:54:09;;;;;;;5.83;3.22;;;;;;;32.13;36.37;101472.16;1675327;83;21805;-87
2022/06/27 10:56:45;;;;;;;7.78;3.30;;;;;;;32.16;36.70;101474.73;1677815;83;21108;-87
2022/06/27 10:59:20;;;;;;;7.10;3.37;;;;;;;32.22;36.46;101477.11;1657201;84;21071;-87
2022/06/27 11:02:05;;;;;;;10.38;9.25;;;;;;;32.26;36.38;101474.61;1640921;85;21092;-87
2022/06/27 11:04:36;;;;;;;5.33;3.33;;;;;;;32.28;36.17;101474.04;1654727;85;21182;-86
2022/06/27 11:07:08;;;;;;;4.30;2.70;;;;;;;32.30;35.88;101468.52;1656855;85;21788;-87
2022/06/27 11:09:47;;;;;;;5.83;3.47;;;;;;;32.29;35.58;101468.13;1652141;85;21111;-86
2022/06/27 11:12:20;;;;;;;4.12;3.35;;;;;;;32.26;35.57;101470.52;1676792;83;21557;-87
2022/06/27 11:14:54;;;;;;;5.80;2.90;;;;;;;32.24;35.50;101464.77;1674851;84;21573;-87
2022/06/27 11:17:41;;;;;;;3.25;2.95;;;;;;;32.22;35.06;101468.07;1665389;83;21003;-87
2022/06/27 11:20:26;;;;;;;4.50;3.08;;;;;;;32.21;34.95;101464.94;1699668;83;21715;-87
2022/06/27 11:23:01;;;;;;;5.65;2.90;;;;;;;32.21;34.67;101465.84;1684819;83;21036;-86
2022/06/27 11:25:29;;;;;;;6.42;4.75;;;;;;;32.18;34.44;101463.27;1659055;84;21050;-86
2022/06/27 11:33:35;;;;;;;6.90;3.52;;;;;;;32.14;34.56;101454.88;1676577;83;21747;-86
2022/06/27 11:36:02;;;;;;;7.22;2.85;;;;;;;32.15;34.21;101449.80;1678824;83;21513;-86
2022/06/27 11:38:31;;;;;;;3.05;2.65;;;;;;;32.15;33.79;101449.80;1676074;83;21059;-87
2022/06/27 11:41:11;;;;;;;3.15;2.55;;;;;;;32.12;33.65;101444.55;1680499;83;21630;-87
2022/06/27 11:43:56;;;;;;;10.43;9.40;;;;;;;32.10;33.88;101450.07;1681124;83;21134;-88
2022/06/27 11:46:32;;;;;;;5.87;3.02;;;;;;;32.10;34.03;101449.20;1705640;82;22586;-87
2022/06/27 11:49:06;;;;;;;4.30;3.22;;;;;;;32.12;34.31;101451.36;1695333;82;21070;-87
2022/06/27 11:51:41;;;;;;;6.83;3.58;;;;;;;32.15;34.24;101445.27;1683818;83;21103;-87
2022/06/27 11:54:18;;;;;;;7.22;3.40;;;;;;;32.21;34.50;101445.86;1688335;83;21162;-87
2022/06/27 11:56:45;;;;;;;5.45;2.87;;;;;;;32.26;34.53;101438.33;1693361;82;21059;-87
2022/06/27 11:59:14;;;;;;;4.50;2.95;;;;;;;32.25;34.10;101429.77;1701228;82;21769;-87
2022/06/27 12:01:59;;;;;;;4.72;3.12;;;;;;;32.06;34.19;101407.64;1699709;82;21034;-87
2022/06/27 12:04:33;;;;;;;6.00;2.52;;;;;;;32.34;34.21;101446.48;1692519;82;20983;-87
2022/06/27 12:07:09;;;;;;;6.03;4.40;;;;;;;32.33;34.20;101443.34;1713485;81;20982;-87
2022/06/27 12:09:52;;;;;;;6.85;3.05;;;;;;;32.30;34.25;101440.81;1694559;82;21054;-87
2022/06/27 12:12:25;;;;;;;5.42;2.77;;;;;;;32.34;34.32;101442.39;1704120;82;22991;-87
2022/06/27 12:14:55;;;;;;;5.97;2.65;;;;;;;32.35;33.97;101429.16;1698864;82;21483;-87
2022/06/27 12:17:29;;;;;;;7.92;3.05;;;;;;;32.33;34.01;101433.81;1681752;82;21068;-87
2022/06/27 12:20:03;;;;;;;3.20;2.70;;;;;;;32.29;33.85;101436.31;1656938;84;21666;-87
2022/06/27 12:22:42;;;;;;;5.67;2.90;;;;;;;32.20;33.70;101425.05;1692380;83;21078;-87